createdAt,value
2018-06-10T00:00:08.311Z,22.23
2018-06-10T00:03:10.328Z,22.20
2018-06-10T00:06:15.507Z,22.17
2018-06-10T00:09:17.571Z,22.15
2018-06-10T00:12:20.343Z,22.16
2018-06-10T00:15:22.309Z,22.06
2018-06-10T00:18:24.385Z,22.07
2018-06-10T00:21:26.437Z,22.07
2018-06-10T00:24:28.407Z,22.12
2018-06-10T00:27:31.043Z,22.16
2018-06-10T00:30:33.095Z,22.16
2018-06-10T00:33:35.103Z,22.19
2018-06-10T00:36:37.210Z,22.21
2018-06-10T00:39:39.269Z,22.22
2018-06-10T00:42:41.223Z,22.21
2018-06-10T00:45:43.334Z,22.19
2018-06-10T00:48:45.374Z,22.18
2018-06-10T00:51:47.425Z,22.14
2018-06-10T00:54:49.503Z,22.16
2018-06-10T00:57:51.575Z,22.19
2018-06-10T01:00:53.532Z,22.11
2018-06-10T01:03:55.647Z,22.09
2018-06-10T01:06:57.704Z,22.03
2018-06-10T01:10:00.327Z,22.01
2018-06-10T01:13:03.471Z,22.03
2018-06-10T01:16:05.522Z,22.02
2018-06-10T01:19:07.578Z,22.02
2018-06-10T01:22:09.689Z,22.07
2018-06-10T01:25:11.722Z,22.06
2018-06-10T01:28:13.789Z,22.05
2018-06-10T01:31:15.790Z,22.02
2018-06-10T01:34:17.826Z,21.99
2018-06-10T01:37:20.547Z,21.99
2018-06-10T01:40:22.590Z,21.95
2018-06-10T01:43:24.522Z,21.92
2018-06-10T01:46:26.529Z,21.89
2018-06-10T01:49:28.575Z,21.86
2018-06-10T01:52:30.640Z,21.87
2018-06-10T01:55:32.710Z,21.88
2018-06-10T01:58:35.831Z,21.87
2018-06-10T02:01:37.860Z,21.89
2018-06-10T02:04:39.851Z,21.82
2018-06-10T02:07:41.925Z,21.81
2018-06-10T02:10:43.990Z,21.81
2018-06-10T02:13:46.103Z,21.78
2018-06-10T02:16:48.224Z,21.77
2018-06-10T02:19:51.008Z,21.73
2018-06-10T02:22:52.963Z,21.76
2018-06-10T02:25:55.066Z,21.75
2018-06-10T02:28:57.110Z,21.72
2018-06-10T02:31:59.192Z,21.56
2018-06-10T02:35:01.238Z,21.51
2018-06-10T02:38:03.361Z,21.47
2018-06-10T02:41:05.746Z,21.51
2018-06-10T02:44:08.792Z,21.49
2018-06-10T02:47:10.863Z,21.48
2018-06-10T02:50:12.926Z,21.42
2018-06-10T02:53:14.888Z,21.39
2018-06-10T02:56:17.986Z,21.39
2018-06-10T02:59:21.176Z,21.24
2018-06-10T03:02:23.281Z,21.11
2018-06-10T03:05:25.337Z,21.09
2018-06-10T03:08:27.422Z,21.17
2018-06-10T03:11:29.543Z,21.21
2018-06-10T03:14:31.623Z,21.23
2018-06-10T03:17:33.567Z,21.13
2018-06-10T03:20:35.650Z,21.13
2018-06-10T03:23:37.731Z,21.13
2018-06-10T03:26:39.863Z,21.16
2018-06-10T03:29:41.881Z,21.17
2018-06-10T03:32:43.932Z,21.18
2018-06-10T03:35:46.007Z,21.17
2018-06-10T03:38:47.949Z,21.15
2018-06-10T03:41:51.076Z,21.14
2018-06-10T03:44:53.123Z,21.15
2018-06-10T03:47:55.215Z,21.17
2018-06-10T03:50:57.171Z,21.17
2018-06-10T03:53:59.985Z,21.17
2018-06-10T03:57:02.030Z,21.12
2018-06-10T04:00:04.138Z,21.12
2018-06-10T04:03:06.191Z,20.97
2018-06-10T04:06:09.271Z,20.99
2018-06-10T04:09:11.357Z,20.92
2018-06-10T04:12:13.405Z,21.00
2018-06-10T04:15:15.434Z,21.02
2018-06-10T04:18:17.532Z,21.04
2018-06-10T04:21:19.443Z,21.06
2018-06-10T04:24:21.459Z,21.09
2018-06-10T04:27:23.554Z,21.11
2018-06-10T04:30:25.607Z,21.15
2018-06-10T04:33:27.682Z,21.07
2018-06-10T04:36:30.667Z,21.08
2018-06-10T04:39:32.739Z,21.06
2018-06-10T04:42:34.823Z,21.15
2018-06-10T04:45:36.863Z,21.05
2018-06-10T04:48:38.936Z,21.08
2018-06-10T04:51:41.027Z,20.99
2018-06-10T04:54:43.282Z,21.00
2018-06-10T04:57:46.403Z,20.97
2018-06-10T05:00:48.485Z,21.05
2018-06-10T05:03:50.499Z,20.95
2018-06-10T05:06:52.479Z,20.98
2018-06-10T05:09:54.543Z,20.93
2018-06-10T05:12:57.569Z,21.04
2018-06-10T05:16:00.361Z,21.15
2018-06-10T05:19:03.372Z,21.21
2018-06-10T05:22:05.583Z,21.27
2018-06-10T05:25:08.675Z,21.10
2018-06-10T05:28:10.784Z,21.09
2018-06-10T05:31:13.872Z,21.10
2018-06-10T05:34:15.932Z,21.11
2018-06-10T05:37:18.051Z,21.19
2018-06-10T05:40:20.179Z,21.23
2018-06-10T05:43:22.275Z,21.27
2018-06-10T05:46:24.279Z,21.24
2018-06-10T05:49:27.494Z,21.30
2018-06-10T05:52:29.527Z,21.45
2018-06-10T05:55:31.616Z,21.29
2018-06-10T05:58:33.853Z,21.32
2018-06-10T06:01:35.824Z,21.33
2018-06-10T06:04:38.430Z,21.27
2018-06-10T06:07:40.490Z,21.35
2018-06-10T06:10:42.468Z,21.50
2018-06-10T06:13:44.558Z,21.42
2018-06-10T06:16:46.661Z,21.42
2018-06-10T06:19:48.675Z,21.51
2018-06-10T06:22:51.687Z,21.71
2018-06-10T06:25:53.751Z,21.87
2018-06-10T06:28:55.819Z,21.91
2018-06-10T06:31:57.891Z,21.87
2018-06-10T06:34:59.947Z,21.97
2018-06-10T06:38:02.074Z,22.05
2018-06-10T06:41:04.095Z,22.08
2018-06-10T06:44:06.360Z,22.30
2018-06-10T06:47:09.503Z,22.34
2018-06-10T06:50:11.521Z,22.45
2018-06-10T06:53:14.096Z,22.59
2018-06-10T06:56:16.199Z,22.51
2018-06-10T06:59:18.228Z,22.47
2018-06-10T07:02:20.312Z,22.64
2018-06-10T07:05:23.763Z,22.68
2018-06-10T07:08:26.140Z,22.60
2018-06-10T07:11:30.206Z,22.66
2018-06-10T07:14:32.690Z,22.73
2018-06-10T07:17:36.774Z,22.72
2018-06-10T07:20:38.880Z,22.65
2018-06-10T07:23:40.970Z,22.74
2018-06-10T07:26:42.911Z,22.74
2018-06-10T07:29:44.948Z,23.01
2018-06-10T07:32:47.027Z,23.35
2018-06-10T07:35:49.007Z,23.53
2018-06-10T07:38:52.008Z,23.56
2018-06-10T07:41:54.064Z,23.61
2018-06-10T07:44:56.135Z,23.36
2018-06-10T07:47:58.194Z,23.42
2018-06-10T07:51:00.287Z,23.56
2018-06-10T07:54:02.511Z,23.79
2018-06-10T07:57:04.629Z,24.07
2018-06-10T08:00:07.512Z,24.15
2018-06-10T08:03:09.522Z,24.20
2018-06-10T08:06:11.676Z,24.10
2018-06-10T08:09:13.823Z,24.10
2018-06-10T08:12:15.911Z,24.37
2018-06-10T08:15:18.092Z,23.89
2018-06-10T08:18:20.110Z,23.93
2018-06-10T08:21:22.800Z,24.25
2018-06-10T08:24:24.880Z,24.30
2018-06-10T08:27:26.951Z,24.30
2018-06-10T08:30:29.099Z,24.56
2018-06-10T08:33:31.233Z,24.95
2018-06-10T08:36:33.275Z,24.96
2018-06-10T08:39:35.753Z,25.06
2018-06-10T08:42:37.778Z,25.15
2018-06-10T08:45:39.839Z,25.27
2018-06-10T08:48:41.864Z,25.49
2018-06-10T08:51:43.903Z,25.74
2018-06-10T08:54:45.819Z,25.70
2018-06-10T08:57:47.843Z,25.69
2018-06-10T09:00:49.870Z,25.80
2018-06-10T09:03:53.030Z,25.54
2018-06-10T09:06:54.955Z,25.87
2018-06-10T09:09:57.102Z,25.96
2018-06-10T09:12:59.184Z,25.87
2018-06-10T09:16:01.379Z,25.98
2018-06-10T09:19:03.520Z,26.20
2018-06-10T09:22:05.620Z,26.18
2018-06-10T09:25:07.760Z,26.35
2018-06-10T09:28:10.759Z,26.47
2018-06-10T09:31:12.787Z,26.21
2018-06-10T09:34:14.815Z,25.86
2018-06-10T09:37:16.888Z,25.71
2018-06-10T09:40:18.931Z,26.12
2018-06-10T09:43:22.983Z,26.19
2018-06-10T09:46:25.021Z,26.08
2018-06-10T09:49:27.103Z,26.03
2018-06-10T09:52:29.039Z,26.38
2018-06-10T09:55:31.289Z,26.69
2018-06-10T09:58:33.204Z,26.68
2018-06-10T10:01:35.123Z,26.63
2018-06-10T10:04:37.262Z,26.55
2018-06-10T10:07:39.282Z,26.65
2018-06-10T10:10:41.367Z,26.76
2018-06-10T10:13:45.679Z,27.00
2018-06-10T10:16:47.832Z,27.00
2018-06-10T10:19:49.851Z,27.12
2018-06-10T10:22:52.552Z,27.12
2018-06-10T10:25:54.559Z,26.96
2018-06-10T10:28:56.567Z,26.94
2018-06-10T10:31:58.734Z,27.09
2018-06-10T10:35:00.787Z,27.22
2018-06-10T10:38:02.907Z,27.19
2018-06-10T10:41:05.111Z,26.96
2018-06-10T10:44:07.203Z,27.04
2018-06-10T10:47:09.268Z,27.39
2018-06-10T10:50:11.331Z,27.59
2018-06-10T10:53:13.258Z,27.33
2018-06-10T10:56:15.263Z,27.33
2018-06-10T10:59:17.441Z,27.56
2018-06-10T11:02:20.093Z,27.67
2018-06-10T11:05:22.082Z,27.53
2018-06-10T11:08:24.075Z,27.60
2018-06-10T11:11:26.195Z,27.64
2018-06-10T11:14:29.228Z,27.72
2018-06-10T11:17:31.495Z,27.92
2018-06-10T11:20:33.578Z,28.23
2018-06-10T11:23:35.644Z,28.31
2018-06-10T11:26:38.519Z,28.46
2018-06-10T11:29:40.611Z,28.39
2018-06-10T11:32:42.713Z,28.53
2018-06-10T11:35:44.764Z,28.62
2018-06-10T11:38:47.327Z,28.76
2018-06-10T11:41:49.405Z,28.89
2018-06-10T11:44:51.451Z,28.86
2018-06-10T11:47:53.530Z,28.97
2018-06-10T11:50:55.615Z,29.12
2018-06-10T11:53:57.654Z,29.30
2018-06-10T11:56:59.628Z,29.15
2018-06-10T12:00:01.731Z,29.29
2018-06-10T12:03:03.798Z,29.19
2018-06-10T12:06:05.975Z,29.52
2018-06-10T12:09:09.121Z,29.64
2018-06-10T12:12:11.189Z,29.63
2018-06-10T12:15:14.176Z,29.56
2018-06-10T12:18:16.257Z,29.43
2018-06-10T12:21:18.357Z,29.51
2018-06-10T12:24:20.486Z,29.79
2018-06-10T12:27:22.587Z,29.55
2018-06-10T12:30:24.622Z,29.51
2018-06-10T12:33:26.715Z,29.76
2018-06-10T12:36:28.719Z,29.81
2018-06-10T12:39:30.718Z,29.76
2018-06-10T12:42:32.865Z,29.73
2018-06-10T12:45:34.810Z,29.82
2018-06-10T12:48:36.831Z,29.92
2018-06-10T12:51:38.926Z,30.10
2018-06-10T12:54:40.983Z,30.03
2018-06-10T12:57:43.054Z,29.86
2018-06-10T13:00:45.131Z,30.01
2018-06-10T13:03:47.223Z,30.05
2018-06-10T13:07:08.257Z,30.38
2018-06-10T13:10:10.671Z,30.54
2018-06-10T13:13:12.770Z,30.63
2018-06-10T13:16:14.812Z,30.73
2018-06-10T13:19:16.881Z,30.55
2018-06-10T13:22:19.283Z,30.73
2018-06-10T13:25:21.298Z,30.82
2018-06-10T13:28:24.421Z,30.81
2018-06-10T13:31:26.480Z,30.68
2018-06-10T13:34:29.484Z,30.58
2018-06-10T13:37:31.424Z,30.61
2018-06-10T13:40:33.551Z,30.79
2018-06-10T13:43:35.463Z,30.75
2018-06-10T13:46:38.374Z,30.45
2018-06-10T13:49:40.472Z,30.01
2018-06-10T13:52:42.495Z,30.30
2018-06-10T13:55:44.567Z,30.75
2018-06-10T13:58:46.684Z,30.89
2018-06-10T14:01:48.679Z,31.00
2018-06-10T14:04:50.777Z,30.99
2018-06-10T14:07:52.870Z,30.79
2018-06-10T14:10:55.095Z,30.98
2018-06-10T14:13:57.170Z,30.89
2018-06-10T14:16:59.315Z,30.52
2018-06-10T14:20:01.408Z,30.44
2018-06-10T14:23:03.507Z,30.51
2018-06-10T14:26:06.822Z,30.21
2018-06-10T14:29:08.972Z,29.62
2018-06-10T14:32:12.068Z,29.83
2018-06-10T14:35:13.983Z,30.01
2018-06-10T14:38:16.086Z,30.17
2018-06-10T14:41:18.181Z,30.00
2018-06-10T14:44:20.270Z,30.26
2018-06-10T14:47:22.375Z,30.49
2018-06-10T14:50:24.646Z,30.53
2018-06-10T14:53:26.626Z,30.57
2018-06-10T14:56:29.816Z,30.14
2018-06-10T14:59:31.902Z,30.28
2018-06-10T15:02:33.998Z,30.44
2018-06-10T15:05:35.968Z,30.49
2018-06-10T15:08:37.958Z,30.68
2018-06-10T15:11:40.001Z,30.37
2018-06-10T15:14:42.023Z,30.42
2018-06-10T15:17:44.095Z,30.06
2018-06-10T15:20:46.176Z,29.81
2018-06-10T15:23:48.265Z,29.77
2018-06-10T15:26:50.324Z,29.87
2018-06-10T15:29:52.379Z,29.67
2018-06-10T15:32:54.338Z,29.53
2018-06-10T15:35:57.475Z,29.35
2018-06-10T15:38:59.555Z,29.54
2018-06-10T15:42:01.731Z,29.71
2018-06-10T15:45:03.888Z,30.03
2018-06-10T15:48:05.915Z,30.20
2018-06-10T15:51:09.044Z,30.19
2018-06-10T15:54:11.092Z,30.26
2018-06-10T15:57:13.139Z,30.31
2018-06-10T16:00:15.111Z,30.27
2018-06-10T16:03:17.205Z,30.37
2018-06-10T16:06:19.130Z,30.57
2018-06-10T16:09:21.218Z,30.66
2018-06-10T16:12:23.295Z,30.27
2018-06-10T16:15:25.364Z,30.29
2018-06-10T16:18:27.453Z,30.24
2018-06-10T16:21:29.486Z,30.38
2018-06-10T16:24:31.551Z,30.43
2018-06-10T16:27:34.534Z,30.10
2018-06-10T16:30:36.628Z,29.83
2018-06-10T16:33:39.805Z,29.75
2018-06-10T16:36:41.887Z,29.55
2018-06-10T16:39:43.964Z,29.67
2018-06-10T16:42:46.137Z,29.69
2018-06-10T16:45:49.198Z,29.67
2018-06-10T16:48:51.167Z,29.43
2018-06-10T16:51:53.259Z,29.47
2018-06-10T16:54:55.363Z,29.34
2018-06-10T16:57:57.473Z,29.31
2018-06-10T17:00:59.406Z,29.43
2018-06-10T17:04:01.461Z,29.49
2018-06-10T17:07:03.831Z,29.44
2018-06-10T17:10:05.924Z,29.42
2018-06-10T17:13:09.003Z,29.34
2018-06-10T17:16:11.068Z,29.30
2018-06-10T17:19:13.113Z,29.23
2018-06-10T17:22:15.998Z,29.22
2018-06-10T17:25:18.169Z,29.30
2018-06-10T17:28:20.374Z,29.36
2018-06-10T17:31:22.382Z,29.46
2018-06-10T17:34:24.434Z,29.49
2018-06-10T17:37:26.531Z,29.45
2018-06-10T17:40:28.843Z,29.38
2018-06-10T17:43:30.970Z,29.48
2018-06-10T17:46:32.891Z,29.46
2018-06-10T17:49:35.100Z,29.39
2018-06-10T17:52:37.311Z,29.35
2018-06-10T17:55:39.414Z,29.29
2018-06-10T17:58:41.414Z,29.26
2018-06-10T18:01:43.410Z,29.16
2018-06-10T18:04:46.682Z,28.92
2018-06-10T18:07:48.802Z,28.45
2018-06-10T18:10:54.608Z,28.05
2018-06-10T18:13:56.659Z,27.75
2018-06-10T18:16:58.721Z,27.46
2018-06-10T18:20:00.811Z,27.28
2018-06-10T18:23:02.911Z,26.99
2018-06-10T18:26:04.983Z,26.95
2018-06-10T18:29:07.013Z,26.72
2018-06-10T18:32:09.163Z,26.72
2018-06-10T18:35:11.246Z,26.53
2018-06-10T18:38:13.346Z,26.09
2018-06-10T18:41:16.601Z,25.82
2018-06-10T18:44:18.712Z,25.52
2018-06-10T18:47:20.835Z,25.41
2018-06-10T18:50:22.922Z,25.29
2018-06-10T18:53:26.006Z,25.12
2018-06-10T18:56:28.139Z,24.97
2018-06-10T18:59:30.135Z,24.74
2018-06-10T19:02:32.233Z,24.76
2018-06-10T19:05:34.291Z,24.77
2018-06-10T19:08:36.550Z,24.76
2018-06-10T19:11:38.668Z,24.83
2018-06-10T19:14:40.595Z,24.96
2018-06-10T19:17:42.674Z,24.90
2018-06-10T19:20:44.772Z,24.95
2018-06-10T19:23:46.917Z,24.99
2018-06-10T19:26:48.979Z,25.06
2018-06-10T19:29:51.073Z,25.00
2018-06-10T19:32:53.126Z,24.92
2018-06-10T19:35:55.217Z,24.95
2018-06-10T19:38:57.239Z,24.90
2018-06-10T19:41:59.211Z,24.83
2018-06-10T19:45:01.375Z,24.66
2018-06-10T19:48:03.472Z,24.42
2018-06-10T19:51:05.555Z,24.30
2018-06-10T19:54:07.591Z,24.26
2018-06-10T19:57:09.671Z,24.24
2018-06-10T20:00:11.730Z,24.23
2018-06-10T20:03:13.810Z,24.20
2018-06-10T20:06:17.176Z,24.12
2018-06-10T20:09:21.243Z,24.02
2018-06-10T20:12:23.261Z,24.15
2018-06-10T20:15:25.353Z,24.18
2018-06-10T20:18:27.398Z,24.24
2018-06-10T20:21:29.331Z,24.30
2018-06-10T20:24:35.283Z,24.21
2018-06-10T20:27:37.316Z,24.17
2018-06-10T20:30:39.450Z,24.17
2018-06-10T20:33:41.474Z,24.15
2018-06-10T20:36:43.533Z,24.15
2018-06-10T20:39:46.211Z,24.03
2018-06-10T20:42:48.278Z,24.00
2018-06-10T20:45:50.242Z,23.92
2018-06-10T20:48:52.207Z,23.95
2018-06-10T20:51:54.312Z,23.93
2018-06-10T20:54:56.477Z,23.94
2018-06-10T20:57:59.573Z,23.95
2018-06-10T21:01:01.626Z,23.78
2018-06-10T21:04:03.700Z,23.82
2018-06-10T21:07:05.749Z,23.85
2018-06-10T21:10:07.852Z,23.95
2018-06-10T21:13:09.873Z,23.97
2018-06-10T21:16:11.968Z,23.85
2018-06-10T21:19:14.011Z,23.88
2018-06-10T21:22:16.830Z,24.01
2018-06-10T21:25:18.855Z,23.91
2018-06-10T21:28:20.806Z,23.43
2018-06-10T21:31:22.795Z,22.89
2018-06-10T21:34:24.879Z,22.42
2018-06-10T21:37:26.931Z,22.51
2018-06-10T21:40:28.989Z,22.62
2018-06-10T21:43:30.966Z,22.54
2018-06-10T21:46:33.047Z,22.64
2018-06-10T21:49:35.099Z,22.72
2018-06-10T21:52:37.199Z,22.66
2018-06-10T21:55:39.259Z,22.56
2018-06-10T21:58:41.286Z,22.45
2018-06-10T22:01:43.319Z,22.20
2018-06-10T22:04:45.964Z,22.24
2018-06-10T22:07:48.060Z,22.23
2018-06-10T22:10:50.202Z,22.35
2018-06-10T22:13:52.267Z,22.38
2018-06-10T22:16:54.369Z,22.22
2018-06-10T22:19:59.421Z,22.12
2018-06-10T22:26:30.694Z,22.21
2018-06-10T22:29:37.070Z,22.03
2018-06-10T22:32:39.147Z,21.78
2018-06-10T22:35:41.234Z,21.64
2018-06-10T22:38:43.287Z,21.62
2018-06-10T22:41:45.569Z,21.77
2018-06-10T22:44:47.624Z,21.85
2018-06-10T22:47:49.711Z,21.93
2018-06-10T22:50:52.907Z,22.01
2018-06-10T22:54:36.520Z,22.08
2018-06-10T22:57:38.769Z,22.07
2018-06-10T23:00:40.781Z,22.04
2018-06-10T23:03:42.883Z,22.04
2018-06-10T23:06:44.903Z,21.99
2018-06-10T23:09:47.017Z,21.98
2018-06-10T23:12:49.154Z,21.98
2018-06-10T23:15:51.224Z,21.97
2018-06-10T23:18:53.944Z,21.97
2018-06-10T23:21:55.868Z,21.85
2018-06-10T23:24:57.975Z,21.77
2018-06-10T23:28:00.015Z,21.77
2018-06-10T23:31:01.964Z,21.82
2018-06-10T23:34:04.052Z,21.84
2018-06-10T23:37:06.127Z,21.81
2018-06-10T23:40:08.247Z,21.80
2018-06-10T23:43:10.350Z,21.77
2018-06-10T23:46:12.451Z,21.76
2018-06-10T23:49:14.979Z,21.76
2018-06-10T23:52:17.059Z,21.73
2018-06-10T23:55:18.967Z,21.70
2018-06-10T23:58:21.140Z,21.64
